Time;durP1;ratioP1;P1;durP2;ratioP2;P2;SDS_P1;SDS_P2;PMS_P1;PMS_P2;Temp;Humidity;BMP_temperature;BMP_pressure;BME280_temperature;BME280_humidity;BME280_pressure;Samples;Min_cycle;Max_cycle;Signal;HPM_P1;HPM_P2
2022/09/03 00:02:20;;;;;;;;;;;19.90;71.70;;;19.27;65.63;96255.31;4286053;33;19909;-86
2022/09/03 00:04:53;;;;;;;;;;;19.90;71.60;;;19.26;65.82;96250.91;4210684;33;19904;-86
2022/09/03 00:07:28;;;;;;;;;;;19.90;71.70;;;19.26;65.97;96250.91;4234634;33;20007;-85
2022/09/03 00:10:00;;;;;;;;;;;19.90;71.80;;;19.25;65.62;96243.72;4238842;33;19902;-86
2022/09/03 00:12:29;;;;;;;;;;;19.90;71.70;;;19.23;65.65;96246.03;4238393;33;19909;-85
2022/09/03 00:15:01;;;;;;;;;;;19.90;71.60;;;19.23;65.99;96246.03;4238924;33;20139;-85
2022/09/03 00:17:35;;;;;;;;;;;19.90;71.60;;;19.24;66.00;96253.19;4238696;33;19909;-85
2022/09/03 00:20:08;;;;;;;;;;;19.90;71.70;;;19.24;66.09;96237.34;4238813;33;19902;-86
2022/09/03 00:22:39;;;;;;;;;;;19.90;71.70;;;19.24;66.19;96239.28;4262121;33;19909;-85
2022/09/03 00:25:13;;;;;;;;;;;19.90;71.80;;;19.23;65.84;96244.03;4262570;33;19902;-86
2022/09/03 00:27:42;;;;;;;;;;;19.90;71.80;;;19.22;65.94;96234.09;4262388;33;19909;-86
2022/09/03 00:30:12;;;;;;;;;;;19.90;71.70;;;19.22;65.93;96245.19;4238633;33;19902;-86
2022/09/03 00:32:46;;;;;;;;;;;19.90;71.70;;;19.21;65.91;96254.66;4238173;33;19910;-86
2022/09/03 00:35:20;;;;;;;;;;;19.90;71.80;;;19.22;66.08;96245.19;4238000;33;20102;-85
2022/09/03 00:37:49;;;;;;;;;;;19.90;71.80;;;19.21;65.97;96243.56;4262340;33;19924;-86
2022/09/03 00:40:48;;;;;;;;;;;19.90;71.80;;;19.21;65.91;96243.56;4238405;33;19902;-86
2022/09/03 00:43:25;;;;;;;;;;;19.90;71.70;;;19.21;65.90;96251.88;4238566;33;20027;-86
2022/09/03 00:45:58;;;;;;;;;;;19.90;71.80;;;19.18;65.64;96235.88;4262197;33;19909;-86
2022/09/03 00:48:30;;;;;;;;;;;19.90;71.80;;;19.21;65.86;96239.97;4286330;33;20136;-86
2022/09/03 00:51:10;;;;;;;;;;;19.90;71.80;;;19.20;66.21;96238.34;4261560;33;19909;-86
2022/09/03 00:53:43;;;;;;;;;;;19.90;71.80;;;19.19;66.14;96245.81;4262197;33;20237;-85
2022/09/03 00:56:19;;;;;;;;;;;19.90;71.80;;;19.20;65.96;96246.66;4263073;33;20260;-85
2022/09/03 00:59:13;;;;;;;;;;;19.90;71.80;;;19.19;65.98;96245.03;4238235;33;19909;-85
2022/09/03 01:01:47;;;;;;;;;;;19.90;71.80;;;19.18;65.95;96244.19;4261632;33;20217;-85
2022/09/03 01:04:29;;;;;;;;;;;19.80;71.60;;;19.19;66.01;96251.38;4249921;33;19902;-85
2022/09/03 01:07:02;;;;;;;;;;;19.90;71.80;;;19.19;66.13;96253.34;4209918;33;19906;-85
2022/09/03 01:09:42;;;;;;;;;;;19.80;71.70;;;19.18;66.29;96249.75;4209880;33;20447;-85
2022/09/03 01:12:15;;;;;;;;;;;19.80;71.80;;;19.18;65.97;96244.19;4233073;33;19909;-85
2022/09/03 01:14:54;;;;;;;;;;;19.90;71.80;;;19.17;66.16;96254.50;4209835;33;19909;-85
2022/09/03 01:17:31;;;;;;;;;;;19.80;71.80;;;19.17;66.05;96253.66;4209779;33;19902;-85
2022/09/03 01:20:40;;;;;;;;;;;19.80;71.70;;;19.14;65.86;96254.34;4233371;33;19910;-85
2022/09/03 01:24:11;;;;;;;;;;;19.90;71.90;;;19.16;66.02;96254.81;4175992;33;19910;-85
2022/09/03 01:26:53;;;;;;;;;;;19.80;71.70;;;19.16;66.26;96257.59;4104243;34;19931;-86
2022/09/03 01:29:25;;;;;;;;;;;19.80;71.80;;;19.16;65.82;96263.16;4241419;33;19910;-85
2022/09/03 01:32:02;;;;;;;;;;;19.80;71.70;;;19.15;65.35;96258.75;4237528;33;19997;-85
2022/09/03 01:34:43;;;;;;;;;;;19.80;71.60;;;19.14;65.93;96257.91;4261817;33;19965;-85
2022/09/03 01:37:17;;;;;;;;;;;19.80;71.80;;;19.14;65.58;96259.88;4237842;33;19947;-85
2022/09/03 01:39:54;;;;;;;;;;;19.80;71.70;;;19.15;65.97;96261.53;4261614;33;19902;-85
2022/09/03 01:42:27;;;;;;;;;;;19.80;71.70;;;19.15;65.89;96261.53;4237527;33;19902;-85
2022/09/03 01:45:23;;;;;;;;;;;19.80;71.90;;;19.14;65.98;96266.22;4237704;33;20227;-85
2022/09/03 01:48:09;;;;;;;;;;;19.80;71.70;;;19.14;65.71;96270.97;4237963;33;19909;-85
2022/09/03 01:50:44;;;;;;;;;;;19.80;71.80;;;19.13;65.83;96274.91;4218619;33;20356;-86
2022/09/03 01:53:25;;;;;;;;;;;19.80;71.90;;;19.13;66.10;96264.59;4209516;33;20156;-85
2022/09/03 01:56:08;;;;;;;;;;;19.80;71.90;;;19.14;66.19;96262.66;4232976;33;20144;-85
2022/09/03 01:58:41;;;;;;;;;;;19.80;71.90;;;19.11;66.18;96257.75;4232900;33;20158;-85
2022/09/03 02:01:14;;;;;;;;;;;19.80;71.90;;;19.12;66.11;96259.38;4209009;33;20046;-86
2022/09/03 02:03:44;;;;;;;;;;;19.80;71.90;;;19.13;66.22;96255.47;4233062;33;19902;-85
2022/09/03 02:06:12;;;;;;;;;;;19.80;71.90;;;19.12;66.11;96267.72;4232100;33;20018;-86
2022/09/03 02:08:41;;;;;;;;;;;19.80;71.90;;;19.10;65.97;96265.28;4261480;33;19902;-85
2022/09/03 02:11:10;;;;;;;;;;;19.80;71.80;;;19.11;65.80;96261.31;4237374;33;19902;-85
2022/09/03 02:13:41;;;;;;;;;;;19.80;71.80;;;19.09;66.00;96258.09;4261496;33;20084;-85
2022/09/03 02:16:14;;;;;;;;;;;19.80;71.80;;;19.10;65.91;96264.44;4237556;33;20013;-85
2022/09/03 02:18:46;;;;;;;;;;;19.80;71.80;;;19.11;66.40;96271.63;4237556;33;20133;-84
2022/09/03 02:21:16;;;;;;;;;;;19.80;71.90;;;19.10;66.09;96264.44;4236984;33;20159;-84
2022/09/03 02:23:45;;;;;;;;;;;19.80;71.90;;;19.08;66.12;96258.41;4237614;33;20030;-85
2022/09/03 02:26:14;;;;;;;;;;;19.80;72.00;;;19.10;66.03;96264.44;4237683;33;20217;-85
2022/09/03 02:28:43;;;;;;;;;;;19.70;71.90;;;19.10;65.99;96265.28;4262230;33;20162;-85
2022/09/03 02:31:13;;;;;;;;;;;19.80;71.80;;;19.10;66.21;96264.44;4260869;33;19909;-85
2022/09/03 02:33:45;;;;;;;;;;;19.70;71.80;;;19.09;65.91;96260.03;4285502;33;19902;-85
2022/09/03 02:36:16;;;;;;;;;;;19.70;71.90;;;19.08;66.34;96255.63;4243657;33;19902;-85
2022/09/03 02:38:45;;;;;;;;;;;19.70;71.90;;;19.07;65.81;96260.38;4232502;33;20152;-85
2022/09/03 02:41:14;;;;;;;;;;;19.70;71.90;;;19.07;66.01;96259.53;4208673;33;19909;-86
2022/09/03 02:43:46;;;;;;;;;;;19.70;71.90;;;19.06;65.93;96258.72;4232657;33;19996;-85
2022/09/03 02:46:20;;;;;;;;;;;19.70;71.90;;;19.07;66.23;96259.53;4208960;33;20328;-85
2022/09/03 02:48:49;;;;;;;;;;;19.70;71.90;;;19.06;66.18;96255.13;4232753;33;19935;-85
2022/09/03 02:51:17;;;;;;;;;;;19.70;71.90;;;19.06;65.90;96255.94;4232072;33;20140;-85
2022/09/03 02:53:46;;;;;;;;;;;19.70;71.90;;;19.05;66.13;96250.72;4232503;33;19902;-85
2022/09/03 02:56:14;;;;;;;;;;;19.70;71.90;;;19.06;66.33;96269.00;4209171;33;20167;-86
2022/09/03 02:58:43;;;;;;;;;;;19.70;72.00;;;19.06;66.19;96263.44;4210248;33;19902;-85
2022/09/03 03:01:11;;;;;;;;;;;19.70;72.00;;;19.06;66.21;96271.78;4246742;33;20134;-85
2022/09/03 03:03:41;;;;;;;;;;;19.70;72.00;;;19.05;66.20;96267.34;4238716;33;19925;-84
2022/09/03 03:06:10;;;;;;;;;;;19.70;72.00;;;19.05;66.29;96264.59;4263311;33;19917;-85
2022/09/03 03:08:38;;;;;;;;;;;19.70;72.00;;;19.04;66.29;96265.75;4263284;33;19902;-85
2022/09/03 03:11:07;;;;;;;;;;;19.70;72.00;;;19.03;66.28;96264.13;4230002;33;20132;-86
2022/09/03 03:13:36;;;;;;;;;;;19.70;72.00;;;19.03;66.39;96264.91;4234924;33;19902;-85
2022/09/03 03:16:06;;;;;;;;;;;19.70;72.00;;;19.04;66.08;96265.75;4211324;33;20290;-85
2022/09/03 03:18:34;;;;;;;;;;;19.70;72.00;;;19.04;66.29;96271.31;4235797;33;19909;-85
2022/09/03 03:21:09;;;;;;;;;;;19.70;71.90;;;19.03;65.81;96270.47;4258034;33;19910;-86
2022/09/03 03:23:38;;;;;;;;;;;19.70;72.00;;;19.03;66.22;96276.00;4211252;33;20246;-86
2022/09/03 03:26:08;;;;;;;;;;;19.70;72.10;;;19.02;66.15;96279.94;4234454;33;19903;-85
2022/09/03 03:28:36;;;;;;;;;;;19.70;72.10;;;19.03;66.46;96275.22;4234692;33;20124;-86
2022/09/03 03:31:08;;;;;;;;;;;19.70;72.00;;;19.01;66.31;96276.34;4234021;33;19914;-86
2022/09/03 03:33:37;;;;;;;;;;;19.70;72.00;;;19.02;66.01;96279.94;4211045;33;19902;-85
2022/09/03 03:36:08;;;;;;;;;;;19.70;72.00;;;19.00;66.15;96269.16;4238315;33;21256;-85
2022/09/03 03:38:37;;;;;;;;;;;19.70;72.10;;;19.01;66.33;96273.56;4262980;33;19902;-85
2022/09/03 03:41:10;;;;;;;;;;;19.70;72.10;;;19.01;66.20;96276.34;4262660;33;20166;-86
2022/09/03 03:43:38;;;;;;;;;;;19.70;72.10;;;19.00;66.26;96274.72;4239220;33;20241;-85
2022/09/03 03:46:07;;;;;;;;;;;19.70;72.00;;;19.00;66.29;96280.25;4260811;33;19902;-85
2022/09/03 03:48:36;;;;;;;;;;;19.70;72.00;;;18.99;66.43;96273.09;4210755;33;19935;-86
2022/09/03 03:51:07;;;;;;;;;;;19.70;72.10;;;18.99;66.25;96281.41;4210407;33;20256;-85
2022/09/03 03:53:38;;;;;;;;;;;19.70;72.00;;;18.98;66.17;96278.94;4210883;33;19902;-86
2022/09/03 03:56:08;;;;;;;;;;;19.70;72.00;;;18.99;66.28;96280.56;4210879;33;19910;-86
2022/09/03 03:58:37;;;;;;;;;;;19.70;72.90;;;18.98;66.30;96271.44;4210788;33;19910;-85
2022/09/03 04:01:06;;;;;;;;;;;19.70;72.10;;;18.98;66.50;96277.00;4233802;33;19939;-85
2022/09/03 04:03:35;;;;;;;;;;;19.70;72.00;;;18.98;66.09;96279.75;4234386;33;20055;-86
2022/09/03 04:06:04;;;;;;;;;;;19.70;72.00;;;18.98;66.35;96282.53;4210696;33;20127;-85
2022/09/03 04:08:36;;;;;;;;;;;19.70;72.10;;;18.97;66.21;96283.69;4210668;33;19987;-86
2022/09/03 04:11:06;;;;;;;;;;;19.70;72.20;;;18.97;66.19;96280.09;4210292;33;19964;-85
2022/09/03 04:13:36;;;;;;;;;;;19.70;72.00;;;18.98;66.21;96284.47;4210803;33;19902;-85
2022/09/03 04:16:06;;;;;;;;;;;19.70;72.20;;;18.97;66.47;96286.44;4210642;33;19914;-85
2022/09/03 04:18:35;;;;;;;;;;;19.70;72.10;;;18.96;66.29;96287.59;4234041;33;20209;-86
2022/09/03 04:21:04;;;;;;;;;;;19.70;72.20;;;18.97;66.46;96288.44;4233461;33;20036;-85
2022/09/03 04:23:33;;;;;;;;;;;19.70;72.10;;;18.97;66.32;96289.22;4210376;33;19984;-86
2022/09/03 04:26:03;;;;;;;;;;;19.60;72.00;;;18.96;66.37;96287.59;4210453;33;19902;-85
2022/09/03 04:28:32;;;;;;;;;;;19.70;72.10;;;18.96;66.35;96287.59;4210586;33;20107;-84
2022/09/03 04:31:01;;;;;;;;;;;19.60;72.10;;;18.95;66.27;96285.94;4257288;33;19902;-85
2022/09/03 04:33:30;;;;;;;;;;;19.60;72.00;;;18.97;66.33;96293.97;4210286;33;19925;-85
2022/09/03 04:36:05;;;;;;;;;;;19.60;72.00;;;18.95;66.19;96297.03;4210269;33;19910;-85
2022/09/03 04:38:34;;;;;;;;;;;19.70;72.20;;;18.96;66.49;96290.38;4210476;33;19902;-85
2022/09/03 04:41:04;;;;;;;;;;;19.60;72.00;;;18.96;66.06;96287.59;4209747;33;19910;-86
2022/09/03 04:43:33;;;;;;;;;;;19.60;72.00;;;18.97;65.97;96293.97;4234122;33;20021;-85
2022/09/03 04:46:02;;;;;;;;;;;19.60;72.10;;;18.95;66.08;96297.03;4210199;33;19957;-85
2022/09/03 04:48:31;;;;;;;;;;;19.60;72.10;;;18.96;66.56;96295.09;4233648;33;19975;-85
2022/09/03 04:51:04;;;;;;;;;;;19.60;72.00;;;18.94;66.37;96292.63;4209805;33;19902;-85
2022/09/03 04:53:34;;;;;;;;;;;19.60;72.00;;;18.95;66.29;96297.03;4210106;33;19903;-85
2022/09/03 04:56:05;;;;;;;;;;;19.60;72.00;;;18.94;66.22;96297.38;4210091;33;19902;-85
2022/09/03 04:58:34;;;;;;;;;;;19.60;72.00;;;18.94;66.08;96306.50;4232954;33;20236;-85
2022/09/03 05:01:08;;;;;;;;;;;19.60;72.10;;;18.94;66.33;96305.72;4209656;33;20136;-85
2022/09/03 05:03:37;;;;;;;;;;;19.60;72.00;;;18.94;66.37;96311.25;4233553;33;19910;-85
2022/09/03 05:06:07;;;;;;;;;;;19.60;72.00;;;18.93;66.42;96304.84;4210145;33;19909;-86
2022/09/03 05:08:36;;;;;;;;;;;19.60;72.10;;;18.91;66.17;96309.09;4248940;33;19967;-86
2022/09/03 05:11:06;;;;;;;;;;;19.60;72.20;;;18.90;66.11;96305.50;4261773;33;20231;-86
2022/09/03 05:13:35;;;;;;;;;;;19.60;72.10;;;18.92;66.42;96311.53;4238140;33;19922;-85
2022/09/03 05:16:05;;;;;;;;;;;19.60;72.20;;;18.91;66.36;96309.88;4262065;33;20105;-85
2022/09/03 05:18:35;;;;;;;;;;;19.60;72.20;;;18.91;66.52;96309.88;4261850;33;20137;-86
2022/09/03 05:21:05;;;;;;;;;;;19.60;72.20;;;18.90;66.44;96311.06;4261132;33;20056;-85
2022/09/03 05:23:36;;;;;;;;;;;19.60;72.20;;;18.91;66.41;96311.84;4238122;33;19901;-85
2022/09/03 05:26:08;;;;;;;;;;;19.60;72.20;;;18.90;66.36;96311.06;4238076;33;20133;-86
2022/09/03 05:28:37;;;;;;;;;;;19.60;72.10;;;18.90;66.48;96322.16;4261809;33;19902;-86
2022/09/03 05:31:07;;;;;;;;;;;19.60;72.20;;;18.90;66.27;96315.78;4237514;33;20252;-85
2022/09/03 05:33:37;;;;;;;;;;;19.60;71.90;;;18.90;66.52;96319.38;4261639;33;19901;-85
2022/09/03 05:36:07;;;;;;;;;;;19.60;72.10;;;18.90;66.44;96318.53;4261766;33;20062;-86
2022/09/03 05:38:35;;;;;;;;;;;19.60;72.20;;;18.89;66.30;96325.22;4261672;33;20097;-86
2022/09/03 05:41:06;;;;;;;;;;;19.60;72.20;;;18.90;66.69;96326.88;4237585;33;19910;-86
2022/09/03 05:43:35;;;;;;;;;;;19.60;72.20;;;18.89;66.46;96330.78;4237830;33;20155;-86
2022/09/03 05:46:05;;;;;;;;;;;19.60;72.20;;;18.89;66.30;96325.22;4261612;33;19902;-86
2022/09/03 05:48:35;;;;;;;;;;;19.60;72.20;;;18.88;66.21;96329.97;4261581;33;19902;-85
2022/09/03 05:51:05;;;;;;;;;;;19.60;72.00;;;18.87;66.20;96333.88;4261356;33;19910;-85
2022/09/03 05:53:35;;;;;;;;;;;19.60;72.10;;;18.89;66.38;96330.78;4231375;33;20146;-85
2022/09/03 05:56:08;;;;;;;;;;;19.60;72.20;;;18.88;66.24;96327.19;4209586;33;19902;-85
2022/09/03 05:58:38;;;;;;;;;;;19.60;72.10;;;18.88;66.48;96326.38;4232935;33;20124;-86
2022/09/03 06:01:13;;;;;;;;;;;19.60;72.30;;;18.88;66.19;96331.91;4208952;33;20309;-86
2022/09/03 06:03:42;;;;;;;;;;;19.60;72.10;;;18.88;66.20;96340.22;4232829;33;20071;-85
2022/09/03 06:06:12;;;;;;;;;;;19.60;72.20;;;18.88;66.47;96341.06;4233019;33;19903;-86
2022/09/03 06:08:41;;;;;;;;;;;19.50;72.20;;;18.88;66.70;96340.22;4232701;33;20000;-85
2022/09/03 06:11:11;;;;;;;;;;;19.50;72.40;;;18.85;66.57;96336.97;4208989;33;19910;-86
2022/09/03 06:13:40;;;;;;;;;;;19.50;72.20;;;18.86;66.50;96348.88;4232844;33;20049;-86
2022/09/03 06:16:08;;;;;;;;;;;19.50;72.20;;;18.86;66.69;96340.56;4226785;33;19993;-85
2022/09/03 06:18:37;;;;;;;;;;;19.50;72.30;;;18.85;66.51;96333.38;4262070;33;19901;-86
2022/09/03 06:21:07;;;;;;;;;;;19.50;72.30;;;18.84;66.78;96340.06;4260825;33;19993;-85
2022/09/03 06:23:36;;;;;;;;;;;19.50;72.30;;;18.83;66.49;96344.81;4261248;33;20030;-86
2022/09/03 06:26:06;;;;;;;;;;;19.50;73.10;;;18.84;66.49;96342.84;4237656;33;20163;-86
2022/09/03 06:28:37;;;;;;;;;;;19.50;72.20;;;18.84;66.18;96345.63;4237429;33;20122;-86
2022/09/03 06:31:07;;;;;;;;;;;19.50;72.10;;;18.83;66.35;96349.53;4236996;33;19933;-84
2022/09/03 06:33:36;;;;;;;;;;;19.50;72.20;;;18.84;66.36;96351.16;4238565;33;19901;-85
2022/09/03 06:36:07;;;;;;;;;;;19.50;72.30;;;18.84;66.50;96351.16;4263824;33;20162;-85
2022/09/03 06:38:36;;;;;;;;;;;19.50;72.30;;;18.83;66.25;96364.22;4264698;33;20565;-85
2022/09/03 06:41:06;;;;;;;;;;;19.50;72.30;;;18.82;66.42;96348.72;4239261;33;19910;-85
2022/09/03 06:43:37;;;;;;;;;;;19.50;72.20;;;18.83;66.33;96355.06;4239803;33;20380;-85
2022/09/03 06:46:07;;;;;;;;;;;19.50;72.20;;;18.84;66.32;96356.72;4239835;33;20260;-85
2022/09/03 06:48:36;;;;;;;;;;;19.50;72.30;;;18.83;66.62;96355.06;4263647;33;20180;-85
2022/09/03 06:51:06;;;;;;;;;;;19.50;72.20;;;18.84;66.37;96351.16;4263225;33;19910;-85
2022/09/03 06:53:36;;;;;;;;;;;19.50;72.30;;;18.81;66.59;96346.25;4239805;33;19937;-85
2022/09/03 06:56:06;;;;;;;;;;;19.50;72.30;;;18.81;66.74;96352.63;4264566;33;19902;-85
2022/09/03 06:58:39;;;;;;;;;;;19.50;72.40;;;18.83;66.31;96360.63;4239618;33;20006;-85
2022/09/03 07:01:09;;;;;;;;;;;19.50;72.30;;;18.82;66.58;96358.97;4239277;33;20149;-85
2022/09/03 07:03:39;;;;;;;;;;;19.50;72.30;;;18.81;66.45;96354.56;4239704;33;20445;-85
2022/09/03 07:06:08;;;;;;;;;;;19.50;72.30;;;18.81;66.33;96362.88;4241009;33;19909;-85
2022/09/03 07:08:37;;;;;;;;;;;19.50;72.30;;;18.81;66.12;96374.81;4234611;33;20254;-85
2022/09/03 07:11:09;;;;;;;;;;;19.50;72.30;;;18.81;66.49;96373.97;4210902;33;19910;-85
2022/09/03 07:13:40;;;;;;;;;;;19.50;72.30;;;18.81;66.48;96376.75;4211364;33;20107;-85
2022/09/03 07:16:11;;;;;;;;;;;19.50;72.40;;;18.81;66.73;96379.53;4211448;33;19902;-85
2022/09/03 07:18:40;;;;;;;;;;;19.50;72.40;;;18.80;66.40;96375.94;4234513;33;20159;-85
2022/09/03 07:21:10;;;;;;;;;;;19.50;72.40;;;18.80;65.93;96375.94;4234209;33;19958;-85
2022/09/03 07:23:39;;;;;;;;;;;19.50;72.30;;;18.81;66.74;96373.97;4210909;33;19909;-84
2022/09/03 07:26:09;;;;;;;;;;;19.50;72.30;;;18.80;66.47;96381.50;4211199;33;20209;-85
2022/09/03 07:28:40;;;;;;;;;;;19.50;72.30;;;18.80;66.29;96383.44;4210942;33;19964;-85
2022/09/03 07:31:10;;;;;;;;;;;19.50;72.20;;;18.79;66.34;96381.81;4234864;33;19903;-85
2022/09/03 07:33:39;;;;;;;;;;;19.50;72.30;;;18.80;66.77;96389.00;4210983;33;19972;-85
2022/09/03 07:36:08;;;;;;;;;;;19.50;72.40;;;18.78;66.47;96380.19;4211191;33;19902;-86
2022/09/03 07:38:37;;;;;;;;;;;19.50;72.40;;;18.79;66.42;96387.34;4210992;33;20131;-85
2022/09/03 07:41:07;;;;;;;;;;;19.50;72.40;;;18.79;66.72;96384.56;4210532;33;19975;-85
2022/09/03 07:43:38;;;;;;;;;;;19.40;72.20;;;18.79;66.25;96390.97;4233955;33;19950;-85
2022/09/03 07:46:07;;;;;;;;;;;19.50;72.40;;;18.78;66.40;96389.31;4248985;33;20219;-85
2022/09/03 07:48:36;;;;;;;;;;;19.50;72.30;;;18.80;66.27;96394.53;4238993;33;20093;-85
2022/09/03 07:51:05;;;;;;;;;;;19.50;72.30;;;18.79;66.56;96395.66;4238940;33;19944;-85
2022/09/03 07:53:33;;;;;;;;;;;19.50;72.30;;;18.79;66.58;96395.66;4262698;33;19902;-86
2022/09/03 07:56:03;;;;;;;;;;;19.50;72.30;;;18.78;66.63;96394.06;4239282;33;19902;-86
2022/09/03 07:58:32;;;;;;;;;;;19.50;72.30;;;18.78;66.39;96399.59;4238774;33;19902;-85
2022/09/03 08:01:04;;;;;;;;;;;19.50;72.30;;;18.78;66.56;96405.97;4238537;33;20112;-86
2022/09/03 08:03:33;;;;;;;;;;;19.40;72.20;;;18.78;66.39;96403.19;4262672;33;19902;-86
2022/09/03 08:06:03;;;;;;;;;;;19.40;72.10;;;18.78;66.44;96399.59;4263102;33;19909;-86
2022/09/03 08:08:32;;;;;;;;;;;19.50;72.30;;;18.78;66.43;96402.38;4262647;33;19902;-86
2022/09/03 08:11:06;;;;;;;;;;;19.40;72.20;;;18.78;66.49;96405.16;4230406;33;19902;-86
2022/09/03 08:13:35;;;;;;;;;;;19.40;72.20;;;18.78;66.42;96407.94;4210592;33;19902;-87
2022/09/03 08:16:05;;;;;;;;;;;19.40;72.20;;;18.78;66.31;96405.97;4235431;33;20471;-87
2022/09/03 08:18:37;;;;;;;;;;;19.40;72.20;;;18.77;66.40;96411.84;4238631;33;19909;-87
2022/09/03 08:21:07;;;;;;;;;;;19.50;72.30;;;18.78;66.58;96403.19;4231132;33;20026;-87
2022/09/03 08:23:37;;;;;;;;;;;19.40;72.20;;;18.77;66.50;96400.75;4257624;33;19937;-86
2022/09/03 08:26:06;;;;;;;;;;;19.40;72.20;;;18.78;66.32;96402.38;4229572;33;19909;-86
2022/09/03 08:28:35;;;;;;;;;;;19.50;72.10;;;18.78;66.16;96405.97;4262332;33;20162;-87
2022/09/03 08:31:10;;;;;;;;;;;19.40;72.10;;;18.76;66.35;96399.91;4238124;33;19932;-87
2022/09/03 08:33:39;;;;;;;;;;;19.50;72.30;;;18.78;66.60;96402.38;4263371;33;19956;-87
2022/09/03 08:36:11;;;;;;;;;;;19.40;72.20;;;18.77;66.61;96412.63;4238622;33;19902;-87
2022/09/03 08:38:42;;;;;;;;;;;19.50;72.40;;;18.77;66.54;96406.28;4262458;33;20041;-86
2022/09/03 08:41:14;;;;;;;;;;;19.40;72.20;;;18.76;66.28;96405.47;4261791;33;20055;-86
2022/09/03 08:44:10;;;;;;;;;;;19.40;72.20;;;18.77;66.70;96411.84;4238503;33;20364;-87
2022/09/03 08:46:50;;;;;;;;;;;19.40;72.20;;;18.76;66.29;96415.75;4262291;33;19902;-86
2022/09/03 08:49:22;;;;;;;;;;;19.40;72.10;;;18.77;66.60;96406.28;4238336;33;20113;-87
2022/09/03 08:51:51;;;;;;;;;;;19.40;72.30;;;18.77;66.60;96417.38;4238177;33;20051;-86
2022/09/03 08:54:20;;;;;;;;;;;19.40;72.30;;;18.74;66.31;96415.25;4262003;33;19902;-86
2022/09/03 08:56:48;;;;;;;;;;;19.40;72.20;;;18.76;66.58;96416.53;4261551;33;20126;-87
2022/09/03 08:59:17;;;;;;;;;;;19.40;72.30;;;18.76;66.80;96413.78;4238243;33;19901;-86
2022/09/03 09:01:57;;;;;;;;;;;19.40;72.30;;;18.77;66.53;96414.59;4261788;33;20133;-86
2022/09/03 09:04:36;;;;;;;;;;;19.40;72.30;;;18.77;66.16;96417.38;4261975;33;19906;-86
2022/09/03 09:07:09;;;;;;;;;;;19.40;72.10;;;18.74;66.33;96412.47;4261693;33;19902;-86
2022/09/03 09:09:47;;;;;;;;;;;19.40;72.20;;;18.77;66.67;96417.38;4262052;33;20236;-86
2022/09/03 09:12:33;;;;;;;;;;;19.40;72.20;;;18.75;66.85;96408.56;4237825;33;20051;-86
2022/09/03 09:15:10;;;;;;;;;;;19.40;72.30;;;18.77;66.60;96411.84;4237941;33;19902;-86
2022/09/03 09:17:59;;;;;;;;;;;19.40;72.30;;;18.77;66.71;96417.38;4247548;33;20054;-86
2022/09/03 09:20:33;;;;;;;;;;;19.40;72.30;;;18.77;66.41;96414.59;4233388;33;20031;-86
2022/09/03 09:23:05;;;;;;;;;;;19.40;72.20;;;18.78;66.46;96413.47;4209343;33;19902;-87
2022/09/03 09:25:37;;;;;;;;;;;19.50;72.40;;;18.76;66.45;96405.47;4233197;33;19903;-86
2022/09/03 09:28:13;;;;;;;;;;;19.40;72.10;;;18.78;66.59;96416.25;4233272;33;20434;-86
2022/09/03 09:30:42;;;;;;;;;;;19.50;72.30;;;18.80;66.50;96402.84;4233087;33;19980;-86
2022/09/03 09:33:12;;;;;;;;;;;19.50;72.30;;;18.80;66.54;96400.09;4209661;33;20319;-86
2022/09/03 09:35:41;;;;;;;;;;;19.50;72.20;;;18.80;66.33;96405.63;4233156;33;20334;-86
2022/09/03 09:38:10;;;;;;;;;;;19.50;72.10;;;18.79;66.50;96401.22;4233018;33;20126;-86
2022/09/03 09:40:40;;;;;;;;;;;19.50;72.20;;;18.80;66.49;96402.84;4209829;33;19910;-86
2022/09/03 09:43:11;;;;;;;;;;;19.50;72.30;;;18.80;66.58;96405.63;4209278;33;20148;-85
2022/09/03 09:45:41;;;;;;;;;;;19.50;72.30;;;18.81;66.46;96404.50;4233988;33;19949;-85
2022/09/03 09:48:16;;;;;;;;;;;19.50;72.00;;;18.81;66.75;96401.72;4233023;33;19910;-86
2022/09/03 09:50:44;;;;;;;;;;;19.50;72.10;;;18.81;66.32;96412.81;4209235;33;20047;-87
2022/09/03 09:53:16;;;;;;;;;;;19.50;72.20;;;18.81;66.30;96412.81;4232685;33;20467;-86
2022/09/03 09:55:55;;;;;;;;;;;19.50;72.20;;;18.80;66.28;96419.50;4209598;33;19902;-85
2022/09/03 09:58:25;;;;;;;;;;;19.50;72.30;;;18.80;66.51;96419.50;4232924;33;20444;-85
2022/09/03 10:01:01;;;;;;;;;;;19.50;72.30;;;18.79;66.18;96418.69;4232378;33;20006;-86
2022/09/03 10:03:34;;;;;;;;;;;19.50;72.20;;;18.79;66.59;96420.63;4209484;33;20149;-85
2022/09/03 10:08:54;;;;;;;;;;;19.50;72.40;;;18.78;66.63;96424.56;4235317;33;19917;-85
2022/09/03 10:11:26;;;;;;;;;;;19.50;72.30;;;18.78;66.65;96430.13;4234774;33;19910;-85
2022/09/03 10:13:54;;;;;;;;;;;19.50;72.30;;;18.77;66.32;96428.47;4212057;33;20057;-86
2022/09/03 10:16:26;;;;;;;;;;;19.50;72.20;;;18.77;66.74;96425.69;4211830;33;20099;-85
2022/09/03 10:19:04;;;;;;;;;;;19.50;72.30;;;18.77;66.53;96429.28;4235486;33;19909;-85
2022/09/03 10:21:39;;;;;;;;;;;19.40;72.30;;;18.77;66.41;96423.72;4211075;33;19902;-86
2022/09/03 10:24:21;;;;;;;;;;;19.50;72.30;;;18.75;66.51;96422.44;4235289;33;20155;-85
2022/09/03 10:26:50;;;;;;;;;;;19.40;72.10;;;18.76;66.64;96422.09;4211502;33;19902;-85
2022/09/03 10:29:21;;;;;;;;;;;19.40;72.20;;;18.77;66.78;96425.69;4235268;33;20448;-85
2022/09/03 10:32:00;;;;;;;;;;;19.40;72.20;;;18.77;66.50;96431.25;4234806;33;19903;-85
2022/09/03 10:34:36;;;;;;;;;;;19.40;72.20;;;18.76;66.61;96427.63;4211756;33;20218;-85
2022/09/03 10:37:15;;;;;;;;;;;19.50;72.40;;;18.76;66.56;96426.84;4211436;33;19909;-85
2022/09/03 10:39:57;;;;;;;;;;;19.40;73.20;;;18.77;66.52;96422.94;4236026;33;20161;-85
2022/09/03 10:42:38;;;;;;;;;;;19.40;72.20;;;18.75;66.53;96430.75;4235446;33;20244;-85
2022/09/03 10:45:17;;;;;;;;;;;19.40;72.30;;;18.77;66.71;96426.50;4258753;33;20129;-85
2022/09/03 10:48:12;;;;;;;;;;;19.40;72.30;;;18.77;66.32;96422.94;4235059;33;20071;-85
2022/09/03 10:50:48;;;;;;;;;;;19.50;72.30;;;18.77;66.42;96423.72;4235915;33;19918;-85
2022/09/03 10:53:36;;;;;;;;;;;19.40;72.30;;;18.77;66.43;96414.59;4238928;33;20078;-85
2022/09/03 10:56:08;;;;;;;;;;;19.40;72.20;;;18.78;66.31;96421.78;4263362;33;19986;-85
2022/09/03 10:58:50;;;;;;;;;;;19.40;72.20;;;18.77;66.33;96417.38;4264425;33;19902;-85
2022/09/03 11:01:24;;;;;;;;;;;19.50;72.30;;;18.78;66.68;96421.78;4239129;33;20168;-85
2022/09/03 11:03:59;;;;;;;;;;;19.40;72.20;;;18.78;66.42;96416.25;4279423;33;20140;-85
2022/09/03 11:06:30;;;;;;;;;;;19.50;72.30;;;18.78;66.41;96424.56;4234643;33;20021;-85
2022/09/03 11:09:02;;;;;;;;;;;19.40;72.40;;;18.77;66.43;96429.28;4235856;33;19902;-85
2022/09/03 11:11:33;;;;;;;;;;;19.40;72.20;;;18.76;66.49;96427.63;4234156;33;19903;-85
2022/09/03 11:14:05;;;;;;;;;;;19.50;72.40;;;18.77;66.25;96428.47;4242659;33;19901;-85
2022/09/03 11:16:35;;;;;;;;;;;19.40;72.20;;;18.78;66.26;96427.34;4263213;33;20049;-85
2022/09/03 11:19:06;;;;;;;;;;;19.40;72.20;;;18.79;66.48;96431.72;4239052;33;20117;-85
2022/09/03 11:21:36;;;;;;;;;;;19.50;72.40;;;18.77;66.63;96428.47;4238715;33;19908;-85
2022/09/03 11:24:11;;;;;;;;;;;19.50;72.40;;;18.78;66.55;96430.13;4257475;33;19973;-85
2022/09/03 11:26:39;;;;;;;;;;;19.50;72.50;;;18.78;66.59;96430.91;4235194;33;19902;-84
2022/09/03 11:29:12;;;;;;;;;;;19.50;72.30;;;18.80;66.39;96427.81;4217209;33;19902;-85
2022/09/03 11:31:56;;;;;;;;;;;19.50;72.30;;;18.78;66.46;96425.38;4238819;33;20121;-84
2022/09/03 11:34:31;;;;;;;;;;;19.50;72.30;;;18.79;66.40;96428.94;4263210;33;20037;-85
2022/09/03 11:37:20;;;;;;;;;;;19.50;72.30;;;18.78;66.57;96422.59;4263772;33;20131;-85
2022/09/03 11:40:00;;;;;;;;;;;19.50;72.40;;;18.78;66.41;96427.34;4287115;33;20329;-84
2022/09/03 11:42:34;;;;;;;;;;;19.50;72.30;;;18.78;66.49;96430.91;4238140;33;19902;-85
2022/09/03 11:45:24;;;;;;;;;;;19.50;72.40;;;18.78;66.65;96422.59;4225066;33;20035;-84